UAE9658 EHAM-LEZG
Flight info
| Callsign | UAE9658 |
|---|---|
| Flight time | N/A |
| Altitude | 35000 |
| Route | WOODY N872 MEDIL DCT KOVIN DCT DUCRA UM728 RESMI UN857 DISAK DCT DIRMO DCT GUERE DCT EVPOK DCT AGN/N0443F270 DCT ANETO N860 GRAUS |
| Aircraft | B77L/H-SDE1E2E3FGHIJ2J3J4J5M1RWXY/LB1D1 |
Departure
| Time | 2026-04-18 07:04 |
|---|---|
| Airport | Amsterdam Airport Schiphol (EHAM) |
Arrival
| Time | N/A |
|---|---|
| Airport | Zaragoza Airport (LEZG) |
| Time | Latitude | Longitude | Altitude | Speed | Heading |
|---|---|---|---|---|---|
| 2026-04-18 06:46 | 52.29244 | 4.75495 | 4 ft | 0 kts | 150° |
| 2026-04-18 06:55 | 52.29245 | 4.75493 | 4 ft | 1 kts | 150° |
| 2026-04-18 06:55 | 52.29260 | 4.75479 | 5 ft | 3 kts | 150° |
| 2026-04-18 06:56 | 52.29278 | 4.75463 | 5 ft | 3 kts | 150° |
| 2026-04-18 06:56 | 52.29295 | 4.75447 | 5 ft | 3 kts | 150° |
| 2026-04-18 06:56 | 52.29312 | 4.75429 | 5 ft | 3 kts | 131° |
| 2026-04-18 06:56 | 52.29319 | 4.75412 | 6 ft | 2 kts | 70° |
| 2026-04-18 06:57 | 52.29315 | 4.75397 | 6 ft | 2 kts | 58° |
| 2026-04-18 06:57 | 52.29301 | 4.75360 | 4 ft | 0 kts | 58° |
| 2026-04-18 07:00 | 52.29308 | 4.75379 | 3 ft | 6 kts | 58° |
| 2026-04-18 07:00 | 52.29351 | 4.75492 | 3 ft | 17 kts | 58° |
| 2026-04-18 07:00 | 52.29434 | 4.75628 | 3 ft | 19 kts | 41° |
| 2026-04-18 07:00 | 52.29504 | 4.75842 | 5 ft | 25 kts | 72° |
| 2026-04-18 07:01 | 52.29586 | 4.76106 | 3 ft | 27 kts | 58° |
| 2026-04-18 07:01 | 52.29698 | 4.76400 | 3 ft | 34 kts | 58° |
| 2026-04-18 07:01 | 52.29811 | 4.76694 | 3 ft | 28 kts | 57° |
| 2026-04-18 07:01 | 52.29949 | 4.76957 | 4 ft | 32 kts | 55° |
| 2026-04-18 07:02 | 52.30063 | 4.77258 | 3 ft | 30 kts | 58° |
| 2026-04-18 07:02 | 52.30198 | 4.77521 | 3 ft | 29 kts | 26° |
| 2026-04-18 07:02 | 52.30364 | 4.77555 | 3 ft | 15 kts | 327° |
| 2026-04-18 07:02 | 52.30352 | 4.77471 | 2 ft | 9 kts | 237° |
| 2026-04-18 07:03 | 52.30350 | 4.77465 | 2 ft | 1 kts | 238° |
| 2026-04-18 07:03 | 52.30268 | 4.77254 | 0 ft | 57 kts | 238° |
| 2026-04-18 07:03 | 52.29898 | 4.76294 | 2 ft | 141 kts | 238° |
| 2026-04-18 07:03 | 52.29262 | 4.74637 | 224 ft | 192 kts | 238° |
| 2026-04-18 07:04 | 52.28544 | 4.72705 | 1035 ft | 197 kts | 242° |
| 2026-04-18 07:04 | 52.27840 | 4.70795 | 1941 ft | 203 kts | 239° |
| 2026-04-18 07:04 | 52.27037 | 4.68930 | 2895 ft | 202 kts | 223° |
| 2026-04-18 07:04 | 52.25700 | 4.68069 | 3470 ft | 226 kts | 184° |
| 2026-04-18 07:05 | 52.24084 | 4.68763 | 3962 ft | 249 kts | 160° |
| 2026-04-18 07:05 | 52.22519 | 4.70050 | 4700 ft | 261 kts | 156° |
| 2026-04-18 07:05 | 52.20893 | 4.71478 | 5528 ft | 268 kts | 155° |
| 2026-04-18 07:05 | 52.19241 | 4.72930 | 6484 ft | 272 kts | 155° |
| 2026-04-18 07:06 | 52.17564 | 4.74390 | 7340 ft | 274 kts | 157° |
| 2026-04-18 07:06 | 52.15786 | 4.75477 | 8119 ft | 275 kts | 169° |
| 2026-04-18 07:06 | 52.13919 | 4.76173 | 9009 ft | 277 kts | 172° |
| 2026-04-18 07:06 | 52.12025 | 4.76821 | 9922 ft | 279 kts | 172° |
| 2026-04-18 07:07 | 52.10109 | 4.77494 | 10678 ft | 286 kts | 172° |
| 2026-04-18 07:07 | 52.08083 | 4.78227 | 10973 ft | 312 kts | 171° |
| 2026-04-18 07:07 | 52.05879 | 4.79055 | 11198 ft | 339 kts | 170° |
| 2026-04-18 07:07 | 52.03502 | 4.79966 | 11568 ft | 360 kts | 170° |
| 2026-04-18 07:08 | 52.01039 | 4.80909 | 12322 ft | 365 kts | 172° |
| 2026-04-18 07:08 | 51.98515 | 4.81085 | 12964 ft | 366 kts | 192° |
| 2026-04-18 07:08 | 51.96119 | 4.79789 | 13935 ft | 362 kts | 208° |
| 2026-04-18 07:08 | 51.93857 | 4.77940 | 14731 ft | 367 kts | 209° |
| 2026-04-18 07:09 | 51.91556 | 4.76086 | 15586 ft | 371 kts | 208° |
| 2026-04-18 07:09 | 51.89226 | 4.74244 | 16454 ft | 375 kts | 208° |
| 2026-04-18 07:09 | 51.86868 | 4.72397 | 17322 ft | 379 kts | 208° |
| 2026-04-18 07:09 | 51.84481 | 4.70534 | 18156 ft | 383 kts | 208° |
| 2026-04-18 07:10 | 51.82066 | 4.68652 | 18909 ft | 387 kts | 208° |
| 2026-04-18 07:10 | 51.79630 | 4.66755 | 19652 ft | 390 kts | 208° |
| 2026-04-18 07:10 | 51.77181 | 4.64851 | 20406 ft | 392 kts | 208° |
| 2026-04-18 07:10 | 51.74710 | 4.62932 | 21156 ft | 395 kts | 208° |
| 2026-04-18 07:11 | 51.72224 | 4.61002 | 21875 ft | 399 kts | 208° |
| 2026-04-18 07:11 | 51.69707 | 4.59051 | 22536 ft | 403 kts | 208° |
| 2026-04-18 07:11 | 51.67200 | 4.57111 | 23214 ft | 407 kts | 208° |
| 2026-04-18 07:11 | 51.64640 | 4.55130 | 23904 ft | 410 kts | 208° |
| 2026-04-18 07:12 | 51.62057 | 4.53131 | 24501 ft | 413 kts | 209° |
| 2026-04-18 07:12 | 51.59464 | 4.51124 | 25090 ft | 415 kts | 209° |
| 2026-04-18 07:12 | 51.56853 | 4.49106 | 25680 ft | 418 kts | 209° |
| 2026-04-18 07:12 | 51.54227 | 4.47078 | 26242 ft | 421 kts | 209° |
| 2026-04-18 07:13 | 51.51574 | 4.45033 | 26787 ft | 424 kts | 209° |
| 2026-04-18 07:13 | 51.48914 | 4.42984 | 27313 ft | 427 kts | 209° |
| 2026-04-18 07:13 | 51.46210 | 4.40904 | 27733 ft | 433 kts | 209° |
| 2026-04-18 07:13 | 51.43483 | 4.38809 | 28224 ft | 436 kts | 209° |
| 2026-04-18 07:14 | 51.40735 | 4.36703 | 28788 ft | 438 kts | 210° |
| 2026-04-18 07:14 | 51.37976 | 4.34619 | 29323 ft | 440 kts | 209° |
| 2026-04-18 07:14 | 51.35188 | 4.32542 | 29779 ft | 443 kts | 209° |
| 2026-04-18 07:14 | 51.32388 | 4.30460 | 30300 ft | 444 kts | 209° |
| 2026-04-18 07:15 | 51.29600 | 4.28374 | 30852 ft | 441 kts | 209° |
| 2026-04-18 07:15 | 51.26836 | 4.26272 | 31462 ft | 438 kts | 209° |
| 2026-04-18 07:15 | 51.24096 | 4.24176 | 31961 ft | 437 kts | 209° |
| 2026-04-18 07:15 | 51.21354 | 4.22083 | 32431 ft | 437 kts | 209° |
| 2026-04-18 07:16 | 51.18620 | 4.20007 | 32920 ft | 435 kts | 209° |
| 2026-04-18 07:16 | 51.15863 | 4.18029 | 33452 ft | 434 kts | 205° |
| 2026-04-18 07:16 | 51.13012 | 4.16424 | 33958 ft | 434 kts | 202° |
| 2026-04-18 07:16 | 51.10149 | 4.14898 | 34402 ft | 433 kts | 202° |
| 2026-04-18 07:17 | 51.07301 | 4.13362 | 34751 ft | 433 kts | 202° |
| 2026-04-18 07:17 | 51.04455 | 4.11814 | 35072 ft | 433 kts | 202° |
| 2026-04-18 07:17 | 50.98705 | 4.08674 | 35181 ft | 438 kts | 202° |
| 2026-04-18 07:18 | 50.92982 | 4.05561 | 35214 ft | 432 kts | 202° |
| 2026-04-18 07:18 | 50.87316 | 4.02450 | 35210 ft | 429 kts | 205° |
| 2026-04-18 07:19 | 50.81835 | 3.98936 | 35212 ft | 427 kts | 206° |
| 2026-04-18 07:19 | 50.76325 | 3.95379 | 35203 ft | 428 kts | 206° |
| 2026-04-18 07:20 | 50.70794 | 3.91833 | 35213 ft | 430 kts | 205° |
| 2026-04-18 07:20 | 50.66137 | 3.88860 | 35213 ft | 432 kts | 205° |
| 2026-04-18 07:21 | 50.60557 | 3.85307 | 35210 ft | 433 kts | 205° |
| 2026-04-18 07:21 | 50.54972 | 3.81706 | 35202 ft | 434 kts | 206° |
| 2026-04-18 07:22 | 50.49439 | 3.77903 | 35208 ft | 435 kts | 207° |
| 2026-04-18 07:22 | 50.43929 | 3.74112 | 35205 ft | 436 kts | 207° |
| 2026-04-18 07:23 | 50.38373 | 3.70330 | 35209 ft | 436 kts | 207° |
| 2026-04-18 07:23 | 50.32810 | 3.66561 | 35207 ft | 436 kts | 207° |
| 2026-04-18 07:24 | 50.27247 | 3.62802 | 35210 ft | 435 kts | 207° |
| 2026-04-18 07:24 | 50.21687 | 3.59052 | 35209 ft | 435 kts | 207° |
| 2026-04-18 07:25 | 50.16136 | 3.55317 | 35209 ft | 434 kts | 207° |
| 2026-04-18 07:25 | 50.10587 | 3.51591 | 35202 ft | 434 kts | 207° |
| 2026-04-18 07:26 | 50.05040 | 3.47876 | 35210 ft | 434 kts | 207° |
| 2026-04-18 07:26 | 49.99487 | 3.44167 | 35208 ft | 435 kts | 207° |
| 2026-04-18 07:27 | 49.93930 | 3.40464 | 35210 ft | 435 kts | 207° |
| 2026-04-18 07:27 | 49.88357 | 3.36760 | 35196 ft | 436 kts | 207° |
| 2026-04-18 07:28 | 49.82782 | 3.33064 | 35198 ft | 436 kts | 207° |
| 2026-04-18 07:28 | 49.77202 | 3.29374 | 35215 ft | 436 kts | 207° |
| 2026-04-18 07:29 | 49.71648 | 3.25711 | 35215 ft | 437 kts | 207° |
| 2026-04-18 07:29 | 49.66021 | 3.22008 | 35200 ft | 437 kts | 207° |
| 2026-04-18 07:30 | 49.60465 | 3.18361 | 35207 ft | 437 kts | 207° |
| 2026-04-18 07:30 | 49.54869 | 3.14695 | 35202 ft | 437 kts | 207° |
| 2026-04-18 07:31 | 49.49294 | 3.10952 | 35194 ft | 436 kts | 210° |
| 2026-04-18 07:31 | 49.44147 | 3.06141 | 35194 ft | 432 kts | 217° |
| 2026-04-18 07:32 | 49.39147 | 3.01006 | 35196 ft | 432 kts | 217° |
| 2026-04-18 07:32 | 49.34130 | 2.95918 | 35194 ft | 433 kts | 217° |
| 2026-04-18 07:33 | 49.29095 | 2.90834 | 35201 ft | 433 kts | 216° |
| 2026-04-18 07:33 | 49.24061 | 2.85762 | 35186 ft | 433 kts | 216° |
| 2026-04-18 07:34 | 49.19022 | 2.80697 | 35209 ft | 433 kts | 216° |
| 2026-04-18 07:34 | 49.13978 | 2.75638 | 35207 ft | 434 kts | 216° |
| 2026-04-18 07:35 | 49.08926 | 2.70583 | 35212 ft | 434 kts | 216° |
| 2026-04-18 07:35 | 49.03870 | 2.65538 | 35189 ft | 434 kts | 217° |
| 2026-04-18 07:36 | 48.98816 | 2.60503 | 35217 ft | 434 kts | 217° |
| 2026-04-18 07:36 | 48.93757 | 2.55480 | 35213 ft | 434 kts | 217° |
| 2026-04-18 07:37 | 48.88697 | 2.50465 | 35216 ft | 434 kts | 217° |
| 2026-04-18 07:37 | 48.83630 | 2.45453 | 35211 ft | 434 kts | 217° |
| 2026-04-18 07:38 | 48.78604 | 2.40492 | 35210 ft | 434 kts | 216° |
| 2026-04-18 07:38 | 48.73543 | 2.35508 | 35214 ft | 434 kts | 216° |
| 2026-04-18 07:39 | 48.68484 | 2.30537 | 35214 ft | 433 kts | 216° |
| 2026-04-18 07:39 | 48.63422 | 2.25575 | 35211 ft | 433 kts | 216° |
| 2026-04-18 07:40 | 48.58211 | 2.20970 | 35204 ft | 437 kts | 208° |
| 2026-04-18 07:40 | 48.52475 | 2.17763 | 35207 ft | 443 kts | 200° |
| 2026-04-18 07:41 | 48.46430 | 2.15758 | 35198 ft | 446 kts | 197° |
| 2026-04-18 07:41 | 48.40357 | 2.13869 | 35185 ft | 446 kts | 197° |
| 2026-04-18 07:42 | 48.34292 | 2.11923 | 35203 ft | 446 kts | 197° |
| 2026-04-18 07:42 | 48.28100 | 2.10771 | 35206 ft | 454 kts | 187° |
| 2026-04-18 07:43 | 48.21751 | 2.11288 | 35198 ft | 462 kts | 178° |
| 2026-04-18 07:43 | 48.15392 | 2.12749 | 35197 ft | 462 kts | 178° |
| 2026-04-18 07:44 | 48.09046 | 2.13540 | 35205 ft | 456 kts | 184° |
| 2026-04-18 07:44 | 48.02691 | 2.13856 | 35212 ft | 457 kts | 184° |
| 2026-04-18 07:45 | 47.96320 | 2.14194 | 35201 ft | 458 kts | 183° |
| 2026-04-18 07:45 | 47.89936 | 2.14558 | 35211 ft | 459 kts | 183° |
| 2026-04-18 07:46 | 47.83543 | 2.14931 | 35216 ft | 460 kts | 183° |
| 2026-04-18 07:46 | 47.77188 | 2.15301 | 35174 ft | 460 kts | 183° |
| 2026-04-18 07:47 | 47.70789 | 2.15671 | 35190 ft | 460 kts | 183° |
| 2026-04-18 07:47 | 47.64380 | 2.16040 | 35185 ft | 461 kts | 183° |
| 2026-04-18 07:48 | 47.57976 | 2.16408 | 35183 ft | 461 kts | 183° |
| 2026-04-18 07:48 | 47.51570 | 2.16776 | 35197 ft | 461 kts | 183° |
| 2026-04-18 07:49 | 47.45164 | 2.17142 | 35192 ft | 461 kts | 183° |
| 2026-04-18 07:49 | 47.38755 | 2.17508 | 35200 ft | 461 kts | 183° |
| 2026-04-18 07:50 | 47.32348 | 2.17872 | 35188 ft | 461 kts | 182° |
| 2026-04-18 07:50 | 47.25941 | 2.18236 | 35198 ft | 461 kts | 182° |
| 2026-04-18 07:51 | 47.19524 | 2.18600 | 35206 ft | 462 kts | 182° |
| 2026-04-18 07:51 | 47.13097 | 2.18963 | 35192 ft | 462 kts | 182° |
| 2026-04-18 07:52 | 47.06682 | 2.19046 | 35207 ft | 459 kts | 189° |
| 2026-04-18 07:52 | 47.00364 | 2.18271 | 35211 ft | 459 kts | 189° |
| 2026-04-18 07:53 | 46.93993 | 2.17482 | 35199 ft | 460 kts | 189° |
| 2026-04-18 07:53 | 46.87600 | 2.16726 | 35204 ft | 461 kts | 189° |
| 2026-04-18 07:54 | 46.81198 | 2.15987 | 35210 ft | 462 kts | 189° |
| 2026-04-18 07:54 | 46.74789 | 2.15251 | 35211 ft | 462 kts | 189° |
| 2026-04-18 07:55 | 46.68383 | 2.14516 | 35206 ft | 462 kts | 189° |
| 2026-04-18 07:55 | 46.61969 | 2.13781 | 35212 ft | 462 kts | 189° |
| 2026-04-18 07:56 | 46.55555 | 2.13048 | 35208 ft | 462 kts | 189° |
| 2026-04-18 07:56 | 46.49153 | 2.12318 | 35204 ft | 462 kts | 189° |
| 2026-04-18 07:57 | 46.42789 | 2.11593 | 35209 ft | 462 kts | 189° |
| 2026-04-18 07:57 | 46.36378 | 2.10865 | 35207 ft | 462 kts | 189° |
| 2026-04-18 07:58 | 46.26761 | 2.09776 | 35204 ft | 462 kts | 189° |
| 2026-04-18 07:59 | 46.20437 | 2.08473 | 35204 ft | 455 kts | 201° |
| 2026-04-18 07:59 | 46.14737 | 2.04765 | 35190 ft | 447 kts | 217° |
| 2026-04-18 08:00 | 46.09674 | 1.99612 | 35197 ft | 446 kts | 219° |
| 2026-04-18 08:00 | 46.04612 | 1.94431 | 35218 ft | 447 kts | 218° |
| 2026-04-18 08:01 | 45.99525 | 1.89290 | 35218 ft | 447 kts | 218° |
| 2026-04-18 08:01 | 45.94422 | 1.84173 | 35187 ft | 447 kts | 218° |
| 2026-04-18 08:02 | 45.89313 | 1.79070 | 35202 ft | 447 kts | 218° |
| 2026-04-18 08:02 | 45.84210 | 1.73981 | 35207 ft | 447 kts | 218° |
| 2026-04-18 08:03 | 45.79100 | 1.68896 | 35203 ft | 447 kts | 218° |
| 2026-04-18 08:03 | 45.73992 | 1.63824 | 35199 ft | 447 kts | 218° |
| 2026-04-18 08:04 | 45.68882 | 1.58761 | 35196 ft | 447 kts | 218° |
| 2026-04-18 08:04 | 45.63802 | 1.53741 | 35206 ft | 447 kts | 218° |
| 2026-04-18 08:05 | 45.58694 | 1.48702 | 35198 ft | 446 kts | 218° |
| 2026-04-18 08:05 | 45.53586 | 1.43673 | 35189 ft | 446 kts | 217° |
| 2026-04-18 08:06 | 45.48295 | 1.39047 | 35203 ft | 449 kts | 208° |
| 2026-04-18 08:06 | 45.42424 | 1.35899 | 35206 ft | 454 kts | 198° |
| 2026-04-18 08:07 | 45.36251 | 1.33879 | 35193 ft | 456 kts | 196° |
| 2026-04-18 08:07 | 45.30060 | 1.31937 | 35210 ft | 456 kts | 196° |
| 2026-04-18 08:08 | 45.23869 | 1.29965 | 35210 ft | 456 kts | 197° |
| 2026-04-18 08:08 | 45.17679 | 1.27970 | 35193 ft | 457 kts | 197° |
| 2026-04-18 08:09 | 45.11478 | 1.25969 | 35206 ft | 457 kts | 197° |
| 2026-04-18 08:09 | 45.05267 | 1.23971 | 35207 ft | 458 kts | 197° |
| 2026-04-18 08:10 | 44.99057 | 1.21977 | 35217 ft | 458 kts | 197° |
| 2026-04-18 08:10 | 44.93879 | 1.20318 | 35200 ft | 459 kts | 197° |
| 2026-04-18 08:11 | 44.87644 | 1.18325 | 35211 ft | 460 kts | 197° |
| 2026-04-18 08:11 | 44.81404 | 1.16334 | 35213 ft | 460 kts | 197° |
| 2026-04-18 08:12 | 44.75158 | 1.14347 | 35211 ft | 460 kts | 196° |
| 2026-04-18 08:12 | 44.68908 | 1.12361 | 35209 ft | 460 kts | 196° |
| 2026-04-18 08:13 | 44.62676 | 1.10387 | 35209 ft | 459 kts | 196° |
| 2026-04-18 08:13 | 44.56445 | 1.08417 | 35202 ft | 458 kts | 196° |
| 2026-04-18 08:14 | 44.50226 | 1.06455 | 35210 ft | 458 kts | 196° |
| 2026-04-18 08:14 | 44.44005 | 1.04497 | 35207 ft | 458 kts | 196° |
| 2026-04-18 08:15 | 44.37786 | 1.02543 | 35205 ft | 458 kts | 196° |
| 2026-04-18 08:15 | 44.31567 | 1.00594 | 35213 ft | 458 kts | 196° |
| 2026-04-18 08:16 | 44.25341 | 0.98647 | 35215 ft | 459 kts | 196° |
| 2026-04-18 08:16 | 44.19112 | 0.96702 | 35210 ft | 459 kts | 196° |
| 2026-04-18 08:17 | 44.12878 | 0.94762 | 35218 ft | 459 kts | 196° |
| 2026-04-18 08:17 | 44.06642 | 0.92823 | 35223 ft | 459 kts | 196° |
| 2026-04-18 08:18 | 44.00397 | 0.90887 | 35213 ft | 460 kts | 196° |
| 2026-04-18 08:18 | 43.94195 | 0.88967 | 35221 ft | 460 kts | 196° |
| 2026-04-18 08:19 | 43.87948 | 0.87044 | 35223 ft | 460 kts | 195° |
| 2026-04-18 08:19 | 43.81659 | 0.85311 | 35209 ft | 461 kts | 194° |
| 2026-04-18 08:20 | 43.75350 | 0.83664 | 35220 ft | 461 kts | 194° |
| 2026-04-18 08:20 | 43.69038 | 0.82003 | 35222 ft | 462 kts | 194° |
| 2026-04-18 08:21 | 43.62735 | 0.80327 | 35217 ft | 461 kts | 194° |
| 2026-04-18 08:21 | 43.56430 | 0.78647 | 35228 ft | 461 kts | 194° |
| 2026-04-18 08:22 | 43.50122 | 0.76970 | 35237 ft | 462 kts | 194° |
| 2026-04-18 08:22 | 43.43814 | 0.75297 | 35235 ft | 462 kts | 194° |
| 2026-04-18 08:23 | 43.37511 | 0.73629 | 35224 ft | 461 kts | 194° |
| 2026-04-18 08:23 | 43.31210 | 0.71965 | 35230 ft | 461 kts | 194° |
| 2026-04-18 08:24 | 43.24912 | 0.70306 | 35234 ft | 461 kts | 194° |
| 2026-04-18 08:24 | 43.18616 | 0.68650 | 35222 ft | 461 kts | 194° |
| 2026-04-18 08:25 | 43.12316 | 0.66997 | 35229 ft | 461 kts | 194° |
| 2026-04-18 08:25 | 43.06014 | 0.65348 | 35228 ft | 461 kts | 194° |
| 2026-04-18 08:26 | 42.99710 | 0.63700 | 35219 ft | 462 kts | 194° |
| 2026-04-18 08:26 | 42.93393 | 0.62053 | 35213 ft | 462 kts | 194° |
| 2026-04-18 08:27 | 42.87084 | 0.60411 | 35217 ft | 460 kts | 194° |
| 2026-04-18 08:27 | 42.80835 | 0.58790 | 35210 ft | 455 kts | 194° |
| 2026-04-18 08:27 | 42.77728 | 0.57984 | 35057 ft | 456 kts | 194° |
| 2026-04-18 08:28 | 42.74578 | 0.57165 | 34399 ft | 461 kts | 194° |
| 2026-04-18 08:28 | 42.71432 | 0.56351 | 33777 ft | 459 kts | 194° |
| 2026-04-18 08:28 | 42.68313 | 0.55547 | 33224 ft | 453 kts | 194° |
| 2026-04-18 08:28 | 42.65232 | 0.54757 | 32710 ft | 449 kts | 194° |
| 2026-04-18 08:29 | 42.62183 | 0.53979 | 32210 ft | 444 kts | 194° |
| 2026-04-18 08:29 | 42.59158 | 0.53206 | 31763 ft | 439 kts | 194° |
| 2026-04-18 08:29 | 42.56178 | 0.52445 | 31372 ft | 433 kts | 194° |
| 2026-04-18 08:29 | 42.53236 | 0.51693 | 30897 ft | 429 kts | 194° |
| 2026-04-18 08:30 | 42.50315 | 0.50946 | 30425 ft | 426 kts | 194° |
| 2026-04-18 08:30 | 42.47415 | 0.50205 | 29892 ft | 422 kts | 194° |
| 2026-04-18 08:30 | 42.44542 | 0.49472 | 29379 ft | 418 kts | 194° |
| 2026-04-18 08:30 | 42.41702 | 0.48749 | 28893 ft | 414 kts | 194° |
| 2026-04-18 08:31 | 42.38888 | 0.48033 | 28408 ft | 410 kts | 193° |
| 2026-04-18 08:31 | 42.36100 | 0.47324 | 27939 ft | 406 kts | 193° |
| 2026-04-18 08:31 | 42.33338 | 0.46619 | 27486 ft | 402 kts | 193° |
| 2026-04-18 08:31 | 42.30601 | 0.45920 | 27027 ft | 399 kts | 193° |
| 2026-04-18 08:32 | 42.27882 | 0.45225 | 26567 ft | 396 kts | 193° |
| 2026-04-18 08:32 | 42.25184 | 0.44536 | 26133 ft | 393 kts | 193° |
| 2026-04-18 08:32 | 42.22507 | 0.43852 | 25697 ft | 391 kts | 193° |
| 2026-04-18 08:32 | 42.19842 | 0.43172 | 25239 ft | 389 kts | 193° |
| 2026-04-18 08:33 | 42.17188 | 0.42496 | 24790 ft | 387 kts | 193° |
| 2026-04-18 08:33 | 42.14545 | 0.41823 | 24371 ft | 386 kts | 193° |
| 2026-04-18 08:33 | 42.11910 | 0.41154 | 23941 ft | 385 kts | 193° |
| 2026-04-18 08:33 | 42.09283 | 0.40486 | 23450 ft | 384 kts | 193° |
| 2026-04-18 08:34 | 42.06663 | 0.39821 | 22988 ft | 382 kts | 193° |
| 2026-04-18 08:34 | 42.04065 | 0.39162 | 22555 ft | 379 kts | 193° |
| 2026-04-18 08:34 | 42.01590 | 0.38156 | 22105 ft | 368 kts | 210° |
| 2026-04-18 08:34 | 41.99598 | 0.36086 | 21724 ft | 361 kts | 230° |
| 2026-04-18 08:35 | 41.98227 | 0.33296 | 21305 ft | 357 kts | 245° |
| 2026-04-18 08:35 | 41.97425 | 0.30163 | 20876 ft | 354 kts | 261° |
| 2026-04-18 08:35 | 41.97176 | 0.26895 | 20488 ft | 350 kts | 265° |
| 2026-04-18 08:35 | 41.97019 | 0.23635 | 20076 ft | 349 kts | 266° |
| 2026-04-18 08:36 | 41.96877 | 0.20387 | 19666 ft | 348 kts | 266° |
| 2026-04-18 08:36 | 41.96729 | 0.17143 | 19241 ft | 347 kts | 266° |
| 2026-04-18 08:36 | 41.96573 | 0.13914 | 18844 ft | 346 kts | 266° |
| 2026-04-18 08:36 | 41.96408 | 0.10692 | 18432 ft | 345 kts | 265° |
| 2026-04-18 08:37 | 41.96237 | 0.07491 | 17977 ft | 343 kts | 265° |
| 2026-04-18 08:37 | 41.96062 | 0.04301 | 17546 ft | 341 kts | 265° |
| 2026-04-18 08:37 | 41.95887 | 0.01171 | 17131 ft | 339 kts | 265° |
| 2026-04-18 08:37 | 41.95709 | -0.01975 | 16739 ft | 337 kts | 265° |
| 2026-04-18 08:38 | 41.95531 | -0.05101 | 16337 ft | 334 kts | 265° |
| 2026-04-18 08:38 | 41.95351 | -0.08245 | 15932 ft | 332 kts | 265° |
| 2026-04-18 08:38 | 41.95176 | -0.11287 | 15549 ft | 330 kts | 265° |
| 2026-04-18 08:38 | 41.94999 | -0.14348 | 15150 ft | 328 kts | 265° |
| 2026-04-18 08:39 | 41.94819 | -0.17436 | 14756 ft | 326 kts | 265° |
| 2026-04-18 08:39 | 41.94642 | -0.20464 | 14371 ft | 324 kts | 265° |
| 2026-04-18 08:39 | 41.94464 | -0.23480 | 13981 ft | 323 kts | 265° |
| 2026-04-18 08:39 | 41.94287 | -0.26476 | 13553 ft | 321 kts | 265° |
| 2026-04-18 08:40 | 41.94111 | -0.29446 | 13160 ft | 319 kts | 265° |
| 2026-04-18 08:40 | 41.93938 | -0.32366 | 12770 ft | 316 kts | 265° |
| 2026-04-18 08:40 | 41.93762 | -0.35304 | 12396 ft | 317 kts | 265° |
| 2026-04-18 08:40 | 41.93582 | -0.38313 | 12019 ft | 322 kts | 265° |
| 2026-04-18 08:41 | 41.93403 | -0.41296 | 11640 ft | 328 kts | 265° |
| 2026-04-18 08:41 | 41.93218 | -0.44359 | 11239 ft | 330 kts | 265° |
| 2026-04-18 08:41 | 41.93015 | -0.47448 | 10838 ft | 323 kts | 261° |
| 2026-04-18 08:41 | 41.92299 | -0.50206 | 10687 ft | 309 kts | 237° |
| 2026-04-18 08:42 | 41.90900 | -0.52312 | 10551 ft | 298 kts | 219° |
| 2026-04-18 08:42 | 41.89177 | -0.53745 | 10421 ft | 286 kts | 206° |
| 2026-04-18 08:42 | 41.87408 | -0.54847 | 10291 ft | 275 kts | 205° |
| 2026-04-18 08:42 | 41.85696 | -0.55876 | 10149 ft | 265 kts | 204° |
| 2026-04-18 08:43 | 41.84022 | -0.56881 | 9851 ft | 271 kts | 205° |
| 2026-04-18 08:43 | 41.82279 | -0.57933 | 9534 ft | 278 kts | 205° |
| 2026-04-18 08:43 | 41.80512 | -0.59008 | 9236 ft | 279 kts | 205° |
| 2026-04-18 08:43 | 41.78753 | -0.60081 | 8903 ft | 276 kts | 205° |
| 2026-04-18 08:44 | 41.77023 | -0.61141 | 8581 ft | 272 kts | 205° |
| 2026-04-18 08:44 | 41.75316 | -0.62189 | 8272 ft | 268 kts | 205° |
| 2026-04-18 08:44 | 41.73638 | -0.63221 | 7958 ft | 263 kts | 205° |
| 2026-04-18 08:44 | 41.71990 | -0.64235 | 7670 ft | 259 kts | 205° |
| 2026-04-18 08:45 | 41.70359 | -0.65238 | 7382 ft | 258 kts | 205° |
| 2026-04-18 08:45 | 41.68721 | -0.66246 | 7107 ft | 262 kts | 205° |
| 2026-04-18 08:45 | 41.67046 | -0.67277 | 6823 ft | 267 kts | 205° |
| 2026-04-18 08:45 | 41.65356 | -0.68316 | 6504 ft | 267 kts | 205° |
| 2026-04-18 08:46 | 41.63683 | -0.69345 | 6175 ft | 263 kts | 204° |
| 2026-04-18 08:46 | 41.62026 | -0.70363 | 5813 ft | 260 kts | 204° |
| 2026-04-18 08:46 | 41.60395 | -0.71364 | 5423 ft | 258 kts | 204° |
| 2026-04-18 08:46 | 41.58755 | -0.72369 | 5119 ft | 261 kts | 204° |
| 2026-04-18 08:47 | 41.57124 | -0.73443 | 4812 ft | 259 kts | 214° |
| 2026-04-18 08:47 | 41.56007 | -0.75223 | 4666 ft | 248 kts | 248° |
| 2026-04-18 08:47 | 41.55774 | -0.77409 | 4581 ft | 233 kts | 276° |
| 2026-04-18 08:47 | 41.56218 | -0.79370 | 4372 ft | 212 kts | 295° |
| 2026-04-18 08:48 | 41.56914 | -0.81019 | 4124 ft | 197 kts | 300° |
| 2026-04-18 08:48 | 41.57586 | -0.82539 | 4076 ft | 188 kts | 299° |
| 2026-04-18 08:48 | 41.58246 | -0.84051 | 3973 ft | 187 kts | 299° |
| 2026-04-18 08:48 | 41.58916 | -0.85594 | 3624 ft | 198 kts | 298° |
| 2026-04-18 08:49 | 41.59590 | -0.87165 | 3241 ft | 189 kts | 299° |
| 2026-04-18 08:49 | 41.60210 | -0.88583 | 3131 ft | 172 kts | 299° |
| 2026-04-18 08:49 | 41.60837 | -0.90028 | 2990 ft | 183 kts | 299° |
| 2026-04-18 08:49 | 41.61482 | -0.91446 | 2586 ft | 174 kts | 301° |
| 2026-04-18 08:50 | 41.62069 | -0.92746 | 2321 ft | 156 kts | 301° |
| 2026-04-18 08:50 | 41.62609 | -0.93971 | 1885 ft | 147 kts | 299° |
| 2026-04-18 08:50 | 41.63112 | -0.95111 | 1606 ft | 138 kts | 304° |
| 2026-04-18 08:50 | 41.63672 | -0.96217 | 1501 ft | 147 kts | 300° |
| 2026-04-18 08:51 | 41.64167 | -0.97429 | 1368 ft | 148 kts | 297° |
| 2026-04-18 08:51 | 41.64646 | -0.98617 | 1338 ft | 144 kts | 298° |
| 2026-04-18 08:51 | 41.65142 | -0.99813 | 1214 ft | 146 kts | 298° |
| 2026-04-18 08:51 | 41.65629 | -1.01001 | 1105 ft | 146 kts | 299° |
| 2026-04-18 08:52 | 41.66146 | -1.02183 | 1007 ft | 149 kts | 301° |
| 2026-04-18 08:52 | 41.66754 | -1.03530 | 1523 ft | 189 kts | 301° |
| 2026-04-18 08:52 | 41.67478 | -1.05126 | 2077 ft | 216 kts | 301° |
| 2026-04-18 08:52 | 41.68318 | -1.06982 | 2460 ft | 258 kts | 301° |
| 2026-04-18 08:53 | 41.68957 | -1.08399 | 2573 ft | 268 kts | 301° |
| 2026-04-18 08:53 | 41.69899 | -1.10482 | 2463 ft | 255 kts | 298° |
| 2026-04-18 08:53 | 41.70317 | -1.12694 | 2378 ft | 246 kts | 263° |
| 2026-04-18 08:53 | 41.69297 | -1.15207 | 2392 ft | 250 kts | 218° |
| 2026-04-18 08:54 | 41.68253 | -1.15921 | 2378 ft | 253 kts | 193° |
| 2026-04-18 08:54 | 41.65994 | -1.15491 | 2404 ft | 255 kts | 148° |
| 2026-04-18 08:54 | 41.65091 | -1.14458 | 2403 ft | 255 kts | 127° |
| 2026-04-18 08:54 | 41.64391 | -1.12312 | 2401 ft | 254 kts | 102° |
| 2026-04-18 08:55 | 41.64104 | -1.09970 | 2411 ft | 256 kts | 97° |
| 2026-04-18 08:55 | 41.63904 | -1.07589 | 2406 ft | 259 kts | 96° |
| 2026-04-18 08:55 | 41.63716 | -1.05206 | 2408 ft | 256 kts | 96° |
| 2026-04-18 08:55 | 41.63527 | -1.02856 | 2404 ft | 252 kts | 96° |
| 2026-04-18 08:56 | 41.63329 | -1.00470 | 2638 ft | 272 kts | 96° |
| 2026-04-18 08:56 | 41.63107 | -0.97868 | 3086 ft | 289 kts | 97° |
| 2026-04-18 08:56 | 41.62871 | -0.95203 | 3452 ft | 289 kts | 98° |
| 2026-04-18 08:56 | 41.62628 | -0.92524 | 3817 ft | 292 kts | 97° |
| 2026-04-18 08:57 | 41.62125 | -0.87142 | 4563 ft | 293 kts | 98° |
| 2026-04-18 08:57 | 41.61869 | -0.84435 | 4931 ft | 294 kts | 98° |
| 2026-04-18 08:57 | 41.61609 | -0.81713 | 5315 ft | 296 kts | 98° |
| 2026-04-18 08:58 | 41.61343 | -0.78974 | 5807 ft | 300 kts | 98° |
| 2026-04-18 08:58 | 41.61075 | -0.76191 | 6303 ft | 306 kts | 97° |
| 2026-04-18 08:58 | 41.60796 | -0.73331 | 6812 ft | 313 kts | 97° |
| 2026-04-18 08:58 | 41.60512 | -0.70441 | 7286 ft | 314 kts | 97° |
| 2026-04-18 08:59 | 41.60176 | -0.67567 | 7740 ft | 312 kts | 103° |
| 2026-04-18 08:59 | 41.59541 | -0.64804 | 7724 ft | 306 kts | 110° |
| 2026-04-18 08:59 | 41.58787 | -0.62211 | 7715 ft | 297 kts | 112° |
| 2026-04-18 08:59 | 41.57991 | -0.59577 | 7739 ft | 320 kts | 112° |
| 2026-04-18 09:00 | 41.57137 | -0.56727 | 7761 ft | 336 kts | 111° |
| 2026-04-18 09:00 | 41.56278 | -0.53807 | 7767 ft | 340 kts | 111° |
| 2026-04-18 09:00 | 41.55436 | -0.50904 | 7850 ft | 337 kts | 111° |
| 2026-04-18 09:00 | 41.54604 | -0.47997 | 8306 ft | 336 kts | 110° |
| 2026-04-18 09:01 | 41.53767 | -0.45059 | 8826 ft | 342 kts | 110° |
| 2026-04-18 09:01 | 41.52919 | -0.42067 | 9334 ft | 346 kts | 110° |
| 2026-04-18 09:01 | 41.52063 | -0.39043 | 9855 ft | 348 kts | 110° |
| 2026-04-18 09:01 | 41.51206 | -0.36012 | 10355 ft | 350 kts | 110° |
| 2026-04-18 09:02 | 41.50345 | -0.32967 | 10816 ft | 352 kts | 110° |
| 2026-04-18 09:02 | 41.49479 | -0.29906 | 11311 ft | 354 kts | 111° |
| 2026-04-18 09:02 | 41.48604 | -0.26822 | 11803 ft | 356 kts | 111° |
| 2026-04-18 09:02 | 41.47725 | -0.23725 | 12303 ft | 359 kts | 111° |
| 2026-04-18 09:03 | 41.46839 | -0.20608 | 12810 ft | 361 kts | 111° |
| 2026-04-18 09:03 | 41.45946 | -0.17464 | 13321 ft | 364 kts | 111° |
| 2026-04-18 09:03 | 41.45067 | -0.14287 | 13826 ft | 367 kts | 109° |
| 2026-04-18 09:03 | 41.44483 | -0.11007 | 13772 ft | 358 kts | 98° |
| 2026-04-18 09:04 | 41.44347 | -0.07775 | 13756 ft | 342 kts | 89° |
| 2026-04-18 09:04 | 41.44427 | -0.04675 | 13742 ft | 330 kts | 89° |
| 2026-04-18 09:04 | 41.44488 | -0.01590 | 13763 ft | 339 kts | 89° |
| 2026-04-18 09:04 | 41.44543 | 0.01589 | 13775 ft | 344 kts | 89° |
| 2026-04-18 09:05 | 41.44595 | 0.04794 | 13794 ft | 347 kts | 89° |
| 2026-04-18 09:05 | 41.44645 | 0.08002 | 13782 ft | 342 kts | 89° |
| 2026-04-18 09:05 | 41.44692 | 0.11105 | 13750 ft | 328 kts | 89° |
| 2026-04-18 09:05 | 41.44735 | 0.14037 | 13722 ft | 313 kts | 89° |
| 2026-04-18 09:06 | 41.44777 | 0.16905 | 13702 ft | 300 kts | 89° |
| 2026-04-18 09:06 | 41.44816 | 0.19745 | 13725 ft | 318 kts | 89° |
| 2026-04-18 09:06 | 41.44856 | 0.22766 | 13752 ft | 332 kts | 89° |
| 2026-04-18 09:06 | 41.44897 | 0.25810 | 13756 ft | 334 kts | 89° |
| 2026-04-18 09:07 | 41.44937 | 0.28906 | 13760 ft | 334 kts | 89° |
| 2026-04-18 09:07 | 41.44974 | 0.31852 | 13753 ft | 334 kts | 89° |
| 2026-04-18 09:07 | 41.45012 | 0.34811 | 13761 ft | 334 kts | 89° |
| 2026-04-18 09:07 | 41.45050 | 0.37907 | 13761 ft | 334 kts | 89° |
| 2026-04-18 09:08 | 41.45087 | 0.41011 | 13754 ft | 334 kts | 89° |
| 2026-04-18 09:08 | 41.45123 | 0.44216 | 13780 ft | 355 kts | 89° |
| 2026-04-18 09:08 | 41.45161 | 0.47538 | 13801 ft | 368 kts | 89° |
| 2026-04-18 09:08 | 41.45198 | 0.50961 | 13783 ft | 370 kts | 89° |
| 2026-04-18 09:09 | 41.45236 | 0.54396 | 13774 ft | 370 kts | 89° |
| 2026-04-18 09:09 | 41.45272 | 0.57819 | 13760 ft | 369 kts | 89° |
| 2026-04-18 09:09 | 41.45307 | 0.61243 | 13748 ft | 369 kts | 89° |
| 2026-04-18 09:09 | 41.45341 | 0.64662 | 13744 ft | 369 kts | 89° |
| 2026-04-18 09:10 | 41.45374 | 0.68170 | 13773 ft | 391 kts | 89° |
| 2026-04-18 09:10 | 41.45409 | 0.71868 | 13766 ft | 403 kts | 89° |
| 2026-04-18 09:10 | 41.45443 | 0.75616 | 13764 ft | 406 kts | 90° |
| 2026-04-18 09:10 | 41.45475 | 0.79375 | 13755 ft | 405 kts | 89° |
| 2026-04-18 09:11 | 41.45507 | 0.83121 | 13751 ft | 404 kts | 89° |
| 2026-04-18 09:11 | 41.45537 | 0.86861 | 13755 ft | 403 kts | 89° |
| 2026-04-18 09:11 | 41.45566 | 0.90597 | 13756 ft | 403 kts | 89° |
| 2026-04-18 09:11 | 41.45594 | 0.94329 | 13756 ft | 403 kts | 89° |
| 2026-04-18 09:12 | 41.45621 | 0.98074 | 13756 ft | 404 kts | 89° |
| 2026-04-18 09:12 | 41.45647 | 1.01824 | 13755 ft | 405 kts | 89° |
| 2026-04-18 09:12 | 41.45671 | 1.05573 | 13752 ft | 404 kts | 89° |
| 2026-04-18 09:12 | 41.45924 | 1.09285 | 13744 ft | 404 kts | 78° |
| 2026-04-18 09:13 | 41.46678 | 1.12906 | 13748 ft | 407 kts | 72° |
| 2026-04-18 09:13 | 41.47523 | 1.16516 | 13757 ft | 406 kts | 72° |
| 2026-04-18 09:13 | 41.48345 | 1.20099 | 13782 ft | 403 kts | 73° |
| 2026-04-18 09:13 | 41.49137 | 1.23675 | 14037 ft | 402 kts | 73° |
| 2026-04-18 09:14 | 41.49907 | 1.27268 | 14215 ft | 403 kts | 73° |
| 2026-04-18 09:14 | 41.50668 | 1.30873 | 14382 ft | 405 kts | 73° |
| 2026-04-18 09:14 | 41.51426 | 1.34498 | 14555 ft | 406 kts | 74° |
| 2026-04-18 09:14 | 41.52184 | 1.38133 | 14736 ft | 407 kts | 73° |
| 2026-04-18 09:15 | 41.52940 | 1.41768 | 14951 ft | 407 kts | 74° |
| 2026-04-18 09:15 | 41.53698 | 1.45416 | 15092 ft | 409 kts | 73° |
| 2026-04-18 09:15 | 41.54456 | 1.49078 | 15135 ft | 409 kts | 75° |
| 2026-04-18 09:15 | 41.54916 | 1.52767 | 15079 ft | 398 kts | 86° |
| 2026-04-18 09:16 | 41.54915 | 1.56400 | 15011 ft | 385 kts | 90° |
| 2026-04-18 09:16 | 41.54862 | 1.59863 | 14919 ft | 370 kts | 90° |
| 2026-04-18 09:16 | 41.54831 | 1.63234 | 14834 ft | 356 kts | 89° |
| 2026-04-18 09:16 | 41.54824 | 1.66491 | 14710 ft | 334 kts | 89° |
| 2026-04-18 09:17 | 41.54830 | 1.69462 | 14524 ft | 306 kts | 89° |
| 2026-04-18 09:17 | 41.54842 | 1.72181 | 14344 ft | 281 kts | 88° |
| 2026-04-18 09:17 | 41.54855 | 1.74683 | 14106 ft | 260 kts | 88° |
| 2026-04-18 09:17 | 41.54869 | 1.77050 | 13344 ft | 261 kts | 88° |
| 2026-04-18 09:18 | 41.54886 | 1.79528 | 12266 ft | 273 kts | 89° |
| 2026-04-18 09:18 | 41.54903 | 1.82108 | 11297 ft | 280 kts | 89° |
| 2026-04-18 09:18 | 41.54914 | 1.84703 | 10607 ft | 278 kts | 88° |
| 2026-04-18 09:18 | 41.54926 | 1.87227 | 10392 ft | 263 kts | 88° |
| 2026-04-18 09:19 | 41.54914 | 1.89666 | 10222 ft | 272 kts | 94° |
| 2026-04-18 09:19 | 41.54640 | 1.92252 | 10229 ft | 291 kts | 99° |
| 2026-04-18 09:19 | 41.54240 | 1.94959 | 10038 ft | 303 kts | 100° |
| 2026-04-18 09:19 | 41.53819 | 1.97767 | 9428 ft | 315 kts | 100° |
| 2026-04-18 09:20 | 41.53398 | 2.00663 | 8987 ft | 316 kts | 99° |
| 2026-04-18 09:20 | 41.53010 | 2.03443 | 8732 ft | 293 kts | 99° |
| 2026-04-18 09:20 | 41.52653 | 2.06062 | 8626 ft | 281 kts | 99° |
| 2026-04-18 09:20 | 41.52311 | 2.08571 | 8547 ft | 269 kts | 99° |
| 2026-04-18 09:21 | 41.51992 | 2.10975 | 8367 ft | 257 kts | 96° |
| 2026-04-18 09:21 | 41.51938 | 2.13300 | 7808 ft | 248 kts | 86° |
| 2026-04-18 09:21 | 41.52046 | 2.15619 | 7201 ft | 254 kts | 85° |
| 2026-04-18 09:21 | 41.52146 | 2.17924 | 6723 ft | 245 kts | 86° |
| 2026-04-18 09:22 | 41.52225 | 2.20148 | 6238 ft | 234 kts | 87° |
| 2026-04-18 09:22 | 41.52289 | 2.22237 | 5952 ft | 216 kts | 87° |
| 2026-04-18 09:22 | 41.52343 | 2.24152 | 5639 ft | 199 kts | 87° |
| 2026-04-18 09:22 | 41.52321 | 2.25961 | 5185 ft | 193 kts | 104° |
| 2026-04-18 09:23 | 41.51772 | 2.27548 | 4654 ft | 187 kts | 120° |
| 2026-04-18 09:23 | 41.51171 | 2.29067 | 4202 ft | 183 kts | 118° |
| 2026-04-18 09:23 | 41.50596 | 2.30571 | 3768 ft | 180 kts | 117° |
| 2026-04-18 09:23 | 41.50027 | 2.32057 | 3421 ft | 179 kts | 117° |
| 2026-04-18 09:24 | 41.49466 | 2.33522 | 3163 ft | 175 kts | 117° |
| 2026-04-18 09:24 | 41.48915 | 2.34964 | 2874 ft | 174 kts | 116° |
| 2026-04-18 09:24 | 41.48365 | 2.36396 | 2561 ft | 173 kts | 115° |
| 2026-04-18 09:24 | 41.47829 | 2.37794 | 2341 ft | 161 kts | 117° |
| 2026-04-18 09:25 | 41.47038 | 2.38814 | 2301 ft | 169 kts | 158° |
| 2026-04-18 09:25 | 41.45879 | 2.39357 | 2335 ft | 182 kts | 154° |
| 2026-04-18 09:25 | 41.44740 | 2.40075 | 2291 ft | 178 kts | 152° |
| 2026-04-18 09:25 | 41.43636 | 2.40769 | 2272 ft | 173 kts | 152° |
| 2026-04-18 09:26 | 41.42564 | 2.41484 | 2298 ft | 173 kts | 152° |
| 2026-04-18 09:26 | 41.41381 | 2.41663 | 2277 ft | 178 kts | 199° |
| 2026-04-18 09:26 | 41.40542 | 2.40507 | 2300 ft | 181 kts | 249° |
| 2026-04-18 09:26 | 41.40153 | 2.38868 | 2331 ft | 190 kts | 250° |
| 2026-04-18 09:27 | 41.39676 | 2.37225 | 2295 ft | 188 kts | 246° |
| 2026-04-18 09:27 | 41.39165 | 2.35642 | 2274 ft | 184 kts | 245° |
| 2026-04-18 09:27 | 41.38653 | 2.34109 | 2299 ft | 184 kts | 245° |
| 2026-04-18 09:27 | 41.38125 | 2.32547 | 2298 ft | 186 kts | 245° |
| 2026-04-18 09:28 | 41.37582 | 2.30949 | 2307 ft | 188 kts | 245° |
| 2026-04-18 09:28 | 41.37039 | 2.29352 | 2300 ft | 190 kts | 245° |
| 2026-04-18 09:28 | 41.36505 | 2.27783 | 2289 ft | 185 kts | 244° |
| 2026-04-18 09:28 | 41.35983 | 2.26250 | 2274 ft | 180 kts | 244° |
| 2026-04-18 09:29 | 41.35454 | 2.24700 | 2300 ft | 183 kts | 243° |
| 2026-04-18 09:29 | 41.34920 | 2.23134 | 2076 ft | 186 kts | 244° |
| 2026-04-18 09:29 | 41.34419 | 2.21661 | 1864 ft | 169 kts | 244° |
| 2026-04-18 09:29 | 41.33952 | 2.20292 | 1637 ft | 161 kts | 244° |
| 2026-04-18 09:30 | 41.33489 | 2.18936 | 1428 ft | 161 kts | 244° |
| 2026-04-18 09:30 | 41.33030 | 2.17586 | 1208 ft | 160 kts | 244° |
| 2026-04-18 09:30 | 41.32578 | 2.16263 | 1018 ft | 154 kts | 246° |
| 2026-04-18 09:30 | 41.32142 | 2.14985 | 807 ft | 149 kts | 246° |
| 2026-04-18 09:31 | 41.31715 | 2.13730 | 624 ft | 149 kts | 245° |
| 2026-04-18 09:31 | 41.31288 | 2.12479 | 408 ft | 148 kts | 245° |
| 2026-04-18 09:31 | 41.30862 | 2.11229 | 221 ft | 148 kts | 245° |
| 2026-04-18 09:31 | 41.30442 | 2.09985 | 38 ft | 146 kts | 243° |
| 2026-04-18 09:32 | 41.30059 | 2.08869 | 22 ft | 113 kts | 245° |
| 2026-04-18 09:32 | 41.29808 | 2.08141 | 23 ft | 60 kts | 245° |
| 2026-04-18 09:32 | 41.29749 | 2.07804 | 25 ft | 22 kts | 274° |
| 2026-04-18 09:32 | 41.29776 | 2.07638 | 24 ft | 17 kts | 311° |
| 2026-04-18 09:33 | 41.29859 | 2.07581 | 24 ft | 14 kts | 336° |
| 2026-04-18 09:33 | 41.29898 | 2.07471 | 23 ft | 16 kts | 250° |
| 2026-04-18 09:33 | 41.29862 | 2.07364 | 25 ft | 14 kts | 245° |
| 2026-04-18 09:33 | 41.29817 | 2.07235 | 25 ft | 9 kts | 249° |
| 2026-04-18 09:34 | 41.29815 | 2.07221 | 25 ft | 3 kts | 261° |
| 2026-04-18 09:34 | 41.29825 | 2.07185 | 27 ft | 6 kts | 312° |
| 2026-04-18 09:34 | 41.29870 | 2.07154 | 26 ft | 9 kts | 334° |
| 2026-04-18 09:34 | 41.29928 | 2.07096 | 25 ft | 12 kts | 299° |
| 2026-04-18 09:35 | 41.29918 | 2.07021 | 24 ft | 10 kts | 250° |
| 2026-04-18 09:35 | 41.29884 | 2.06926 | 25 ft | 13 kts | 244° |
| 2026-04-18 09:35 | 41.29896 | 2.06839 | 26 ft | 7 kts | 327° |
| 2026-04-18 09:35 | 41.29933 | 2.06814 | 25 ft | 6 kts | 334° |
| 2026-04-18 09:36 | 41.29935 | 2.06814 | 25 ft | 0 kts | 334° |